CDT,Max TemperatureF,Mean TemperatureF,Min TemperatureF,Max Dew PointF,MeanDew PointF,Min DewpointF,Max Humidity, Mean Humidity, Min Humidity, Max Sea Level PressureIn, Mean Sea Level PressureIn, Min Sea Level PressureIn, Max VisibilityMiles, Mean VisibilityMiles, Min VisibilityMiles, Max Wind SpeedMPH, Mean Wind SpeedMPH, Max Gust SpeedMPH,PrecipitationIn, CloudCover, Events, WindDirDegrees
2013-3-1,30,28,26,25,22,19,86,74,64,30.26,30.19,30.14,10,8,2,13,6,16,0.00,8,,332
2013-3-2,32,24,17,19,15,10,86,65,47,30.33,30.28,30.24,10,10,6,12,6,22,0.00,4,,340
2013-3-3,44,30,15,23,16,10,93,57,31,30.23,30.07,29.91,10,10,7,10,4,16,0.00,3,,141
2013-3-4,57,47,37,36,30,23,66,55,41,29.91,29.78,29.68,10,10,10,12,8,21,0.00,2,,111
2013-3-5,39,34,30,28,21,16,75,59,44,30.28,30.10,29.86,10,10,5,21,10,30,0.01,8,,314
2013-3-6,37,30,24,19,18,16,80,60,45,30.43,30.36,30.28,10,10,10,14,8,23,0.00,4,,352
2013-3-7,57,40,23,27,22,18,80,53,26,30.36,30.29,30.21,10,10,10,9,5,,0.00,1,,127
2013-3-8,57,45,33,32,28,23,81,52,30,30.32,30.25,30.12,10,10,10,15,7,20,0.02,2,,147
2013-3-9,69,56,42,48,39,30,82,59,28,30.12,29.90,29.74,10,10,5,20,10,28,0.68,7,Thunderstorm,166
2013-3-10,57,45,33,52,44,28,93,84,59,29.86,29.73,29.65,10,9,4,18,9,32,0.95,8,,221
2013-3-11,37,32,26,28,24,21,93,76,52,30.03,29.91,29.82,10,8,3,16,10,24,0.00,6,,283
2013-3-12,48,36,23,27,22,19,93,62,34,30.31,30.16,30.02,10,10,8,18,5,28,0.00,2,,286
2013-3-13,44,35,26,21,17,12,69,51,27,30.48,30.40,30.31,10,10,10,10,6,18,0.00,1,,322
2013-3-14,69,48,26,36,25,19,74,51,27,30.40,30.24,30.09,10,10,10,20,7,26,0.00,2,,185
2013-3-15,78,56,33,45,39,30,93,52,24,30.10,29.90,29.73,10,10,10,17,4,26,0.00,0,,228
2013-3-16,68,52,37,45,38,32,87,66,40,30.03,29.92,29.72,10,8,3,14,9,22,0.06,5,,10
2013-3-17,37,35,33,34,32,28,93,89,81,30.06,29.94,29.76,10,6,2,15,10,22,1.12,8,,71
2013-3-18,53,44,35,36,31,19,93,70,30,30.08,29.86,29.72,10,7,0,16,6,23,0.00,5,,317
2013-3-19,44,34,24,30,22,12,93,61,31,30.26,30.20,30.08,10,10,10,10,4,,0.00,5,,289
2013-3-20,37,29,21,30,16,3,100,55,26,30.33,30.25,30.16,10,10,5,16,5,25,0.00,2,,319
2013-3-21,33,25,17,28,17,9,93,68,35,30.15,30.05,29.96,10,8,1,8,3,,0.07,5,,96
2013-3-22,35,32,30,34,30,27,93,89,81,30.01,29.98,29.96,10,6,1,9,6,,0.01,8,,91
2013-3-23,46,40,35,36,31,27,93,72,50,30.02,29.93,29.82,10,9,2,14,6,21,0.15,8,,59
2013-3-24,39,34,28,36,28,21,93,86,74,30.01,29.80,29.65,10,4,0,16,12,26,0.36,8,,351
2013-3-25,33,28,24,25,22,19,80,76,65,30.29,30.12,29.99,10,8,2,13,9,23,0.00,8,,301
2013-3-26,39,32,24,23,20,18,80,65,45,30.40,30.35,30.29,10,10,10,10,5,,0.00,2,,310
2013-3-27,50,36,21,30,24,18,86,61,35,30.38,30.33,30.25,10,10,10,10,3,,0.00,4,,114
2013-3-28,64,54,44,37,33,28,58,48,37,30.29,30.24,30.17,10,10,10,12,6,,0.01,7,,130
2013-3-29,64,55,46,50,44,37,100,73,39,30.24,30.20,30.16,10,7,0,9,5,,0.55,5,Thunderstorm,99
2013-3-30,55,50,46,48,44,37,93,82,58,30.17,30.03,29.91,10,8,2,13,5,18,0.25,5,,140
2013-3-31,66,54,41,48,39,30,100,64,26,29.99,29.95,29.92,10,7,0,13,3,23,0.09,5,,296